Time;durP1;ratioP1;P1;durP2;ratioP2;P2;SDS_P1;SDS_P2;PMS_P1;PMS_P2;Temp;Humidity;BMP_temperature;BMP_pressure;BME280_temperature;BME280_humidity;BME280_pressure;Samples;Min_cycle;Max_cycle;Signal;HPM_P1;HPM_P2
2023/12/18 00:01:07;;;;;;;;;31.00;29.00;;;;;;;;5053420;28;33017;-78
2023/12/18 00:03:32;;;;;;;;;36.00;29.75;;;;;;;;5070497;28;28494;-79
2023/12/18 00:05:58;;;;;;;;;34.00;30.67;;;;;;;;5054647;28;28069;-77
2023/12/18 00:08:23;;;;;;;;;30.33;27.33;;;;;;;;5072029;28;28942;-77
2023/12/18 00:10:48;;;;;;;;;38.33;27.67;;;;;;;;5073368;28;28975;-77
2023/12/18 00:13:14;;;;;;;;;37.00;32.00;;;;;;;;5055127;28;29053;-77
2023/12/18 00:15:39;;;;;;;;;34.67;30.67;;;;;;;;5054798;28;28747;-78
2023/12/18 00:18:04;;;;;;;;;32.67;28.00;;;;;;;;5059980;28;28462;-76
2023/12/18 00:20:29;;;;;;;;;33.33;28.33;;;;;;;;5073814;28;29339;-76
2023/12/18 00:22:55;;;;;;;;;22.67;17.67;;;;;;;;5055607;28;29437;-79
2023/12/18 00:25:20;;;;;;;;;29.00;23.67;;;;;;;;5072967;28;28450;-77
2023/12/18 00:27:45;;;;;;;;;30.67;24.67;;;;;;;;5077807;28;28521;-80
2023/12/18 00:30:11;;;;;;;;;33.00;23.33;;;;;;;;5069955;28;28401;-81
2023/12/18 00:32:36;;;;;;;;;27.67;22.00;;;;;;;;5078055;28;28310;-81
2023/12/18 00:35:01;;;;;;;;;28.00;24.67;;;;;;;;5062058;28;28530;-80
2023/12/18 00:37:27;;;;;;;;;31.00;24.00;;;;;;;;5067861;28;29137;-80
2023/12/18 00:39:52;;;;;;;;;28.00;26.33;;;;;;;;5063674;28;28662;-82
2023/12/18 00:42:17;;;;;;;;;16.00;15.00;;;;;;;;5058309;28;28520;-81
2023/12/18 00:44:42;;;;;;;;;28.33;22.33;;;;;;;;5078180;28;28407;-83
2023/12/18 00:47:08;;;;;;;;;33.00;26.00;;;;;;;;5071446;28;28635;-81
2023/12/18 00:49:33;;;;;;;;;26.33;20.33;;;;;;;;5078048;28;28517;-81
2023/12/18 00:51:59;;;;;;;;;32.33;27.00;;;;;;;;5077877;28;28862;-80
2023/12/18 00:54:24;;;;;;;;;32.67;27.33;;;;;;;;5080815;28;28587;-81
2023/12/18 00:56:50;;;;;;;;;33.67;26.00;;;;;;;;5050491;28;28247;-81
2023/12/18 00:59:15;;;;;;;;;29.67;27.67;;;;;;;;5073038;28;28498;-79
2023/12/18 01:01:42;;;;;;;;;31.00;24.67;;;;;;;;5060642;28;28548;-80
2023/12/18 01:04:07;;;;;;;;;24.33;24.00;;;;;;;;5075087;28;28782;-76
2023/12/18 01:06:32;;;;;;;;;25.67;22.33;;;;;;;;5055373;28;29199;-77
2023/12/18 01:08:57;;;;;;;;;32.33;25.00;;;;;;;;5072242;28;29284;-76
2023/12/18 01:11:23;;;;;;;;;27.67;24.00;;;;;;;;5055055;28;28648;-76
2023/12/18 01:13:48;;;;;;;;;29.67;25.67;;;;;;;;5051520;28;28404;-78
2023/12/18 01:16:13;;;;;;;;;25.00;22.67;;;;;;;;5072968;28;28472;-78
2023/12/18 01:18:38;;;;;;;;;28.33;24.33;;;;;;;;5074916;28;28932;-76
2023/12/18 01:21:04;;;;;;;;;31.67;25.33;;;;;;;;5070849;28;28736;-76
2023/12/18 01:23:29;;;;;;;;;33.00;25.00;;;;;;;;5054581;28;28555;-77
2023/12/18 01:25:54;;;;;;;;;29.00;26.67;;;;;;;;5054613;28;29683;-77
2023/12/18 01:28:19;;;;;;;;;26.67;22.33;;;;;;;;5056846;28;29936;-76
2023/12/18 01:30:45;;;;;;;;;26.67;24.67;;;;;;;;5073567;28;28747;-77
2023/12/18 01:33:10;;;;;;;;;34.67;26.67;;;;;;;;5072370;28;28606;-77
2023/12/18 01:35:35;;;;;;;;;26.33;22.67;;;;;;;;5074930;28;28469;-78
2023/12/18 01:38:00;;;;;;;;;26.33;24.00;;;;;;;;5073273;28;28557;-77
2023/12/18 01:40:26;;;;;;;;;19.33;18.33;;;;;;;;5072351;28;28513;-77
2023/12/18 01:42:52;;;;;;;;;24.67;23.33;;;;;;;;5068917;28;28862;-76
2023/12/18 01:45:17;;;;;;;;;22.67;19.00;;;;;;;;5075027;28;28640;-81
2023/12/18 01:47:43;;;;;;;;;27.00;21.33;;;;;;;;5072940;28;29527;-76
2023/12/18 01:50:08;;;;;;;;;24.67;20.67;;;;;;;;5069253;28;28748;-78
2023/12/18 01:52:35;;;;;;;;;28.33;23.33;;;;;;;;5071577;28;28458;-76
2023/12/18 01:55:01;;;;;;;;;29.67;23.67;;;;;;;;5051554;28;29329;-75
2023/12/18 01:57:27;;;;;;;;;29.33;21.67;;;;;;;;5068098;28;28526;-78
2023/12/18 01:59:52;;;;;;;;;19.67;18.67;;;;;;;;5044940;28;28847;-76
2023/12/18 02:02:18;;;;;;;;;27.67;20.67;;;;;;;;5043098;28;28549;-76
2023/12/18 02:04:44;;;;;;;;;25.67;20.67;;;;;;;;5053001;28;30043;-76
2023/12/18 02:07:09;;;;;;;;;22.33;21.00;;;;;;;;5070091;28;28641;-76
2023/12/18 02:09:35;;;;;;;;;32.33;22.00;;;;;;;;5066282;28;28526;-78
2023/12/18 02:12:00;;;;;;;;;26.67;24.00;;;;;;;;5074089;28;28908;-75
2023/12/18 02:14:25;;;;;;;;;26.33;20.67;;;;;;;;5068858;28;29032;-76
2023/12/18 02:16:51;;;;;;;;;21.33;19.33;;;;;;;;5067933;28;28727;-76
2023/12/18 02:19:23;;;;;;;;;25.00;23.33;;;;;;;;5049848;28;28470;-77
2023/12/18 02:21:48;;;;;;;;;26.67;19.00;;;;;;;;5070136;28;28441;-78
2023/12/18 02:24:14;;;;;;;;;26.33;21.67;;;;;;;;5066925;28;28392;-78
2023/12/18 02:26:39;;;;;;;;;29.00;18.00;;;;;;;;5068644;28;28893;-77
2023/12/18 02:29:04;;;;;;;;;29.33;22.00;;;;;;;;5057412;28;27937;-78
2023/12/18 02:31:29;;;;;;;;;25.33;22.67;;;;;;;;5052382;28;28534;-78
2023/12/18 02:33:55;;;;;;;;;20.00;16.67;;;;;;;;5061600;28;28918;-77
2023/12/18 02:36:20;;;;;;;;;24.00;18.33;;;;;;;;5071172;28;28880;-77
2023/12/18 02:38:45;;;;;;;;;23.33;20.33;;;;;;;;5042870;28;28552;-78
2023/12/18 02:41:10;;;;;;;;;25.67;21.67;;;;;;;;5050907;28;28345;-77
2023/12/18 02:43:36;;;;;;;;;31.33;22.67;;;;;;;;5070636;28;28442;-78
2023/12/18 02:46:01;;;;;;;;;28.33;24.00;;;;;;;;5069350;28;28550;-78
2023/12/18 02:48:26;;;;;;;;;16.00;15.67;;;;;;;;5045272;28;28836;-78
2023/12/18 02:50:51;;;;;;;;;22.67;16.33;;;;;;;;5058134;28;28211;-77
2023/12/18 02:53:17;;;;;;;;;26.00;23.67;;;;;;;;5052884;28;29421;-76
2023/12/18 02:55:43;;;;;;;;;24.67;19.33;;;;;;;;5068549;28;28536;-75
2023/12/18 02:58:08;;;;;;;;;25.00;22.33;;;;;;;;5064573;28;28804;-78
2023/12/18 03:00:33;;;;;;;;;24.00;23.67;;;;;;;;5045328;28;28493;-76
2023/12/18 03:02:58;;;;;;;;;31.33;24.67;;;;;;;;5063499;28;28878;-78
2023/12/18 03:05:24;;;;;;;;;23.67;17.33;;;;;;;;5072307;28;28450;-79
2023/12/18 03:07:49;;;;;;;;;32.33;27.00;;;;;;;;5074787;28;28486;-77
2023/12/18 03:10:14;;;;;;;;;23.00;20.33;;;;;;;;5071995;28;28535;-76
2023/12/18 03:12:39;;;;;;;;;20.33;19.00;;;;;;;;5072256;28;28935;-77
2023/12/18 03:15:05;;;;;;;;;26.67;24.67;;;;;;;;5050318;28;29642;-76
2023/12/18 03:17:30;;;;;;;;;28.00;23.33;;;;;;;;5058123;28;28442;-76
2023/12/18 03:19:57;;;;;;;;;23.67;22.00;;;;;;;;5066374;28;28275;-77
2023/12/18 03:22:22;;;;;;;;;29.33;22.67;;;;;;;;5053082;28;29694;-77
2023/12/18 03:24:47;;;;;;;;;29.00;23.33;;;;;;;;5051810;28;30162;-76
2023/12/18 03:27:12;;;;;;;;;25.00;20.67;;;;;;;;5049444;28;28857;-77
2023/12/18 03:29:37;;;;;;;;;19.33;16.00;;;;;;;;5066684;28;28426;-75
2023/12/18 03:32:03;;;;;;;;;28.00;23.67;;;;;;;;5072309;28;28476;-78
2023/12/18 03:34:29;;;;;;;;;27.67;23.00;;;;;;;;5072984;28;29704;-78
2023/12/18 03:36:54;;;;;;;;;26.00;23.00;;;;;;;;5063457;28;28441;-76
2023/12/18 03:39:19;;;;;;;;;28.33;24.33;;;;;;;;5073173;28;28615;-76
2023/12/18 03:41:45;;;;;;;;;31.00;25.00;;;;;;;;5069384;28;28539;-77
2023/12/18 03:44:10;;;;;;;;;25.00;20.00;;;;;;;;5052607;28;28712;-78
2023/12/18 03:46:36;;;;;;;;;22.33;21.67;;;;;;;;5066462;28;27945;-82
2023/12/18 03:49:01;;;;;;;;;25.00;20.33;;;;;;;;5058263;28;28493;-82
2023/12/18 03:51:26;;;;;;;;;32.67;22.33;;;;;;;;5048851;28;28092;-81
2023/12/18 03:53:52;;;;;;;;;26.00;22.00;;;;;;;;5052550;28;29900;-81
2023/12/18 03:56:17;;;;;;;;;28.00;22.00;;;;;;;;5075886;28;28790;-81
2023/12/18 03:58:42;;;;;;;;;29.67;25.00;;;;;;;;5053066;28;28407;-82
2023/12/18 04:01:07;;;;;;;;;27.67;24.33;;;;;;;;5058767;28;28612;-81
2023/12/18 04:03:33;;;;;;;;;27.33;22.67;;;;;;;;5041582;28;28513;-81
2023/12/18 04:05:58;;;;;;;;;28.00;24.33;;;;;;;;5062646;28;28490;-81
2023/12/18 04:08:23;;;;;;;;;27.33;25.67;;;;;;;;5072578;28;28968;-82
2023/12/18 04:10:48;;;;;;;;;25.67;24.33;;;;;;;;5047016;28;29370;-81
2023/12/18 04:13:14;;;;;;;;;26.33;21.00;;;;;;;;5069919;28;28642;-79
2023/12/18 04:15:39;;;;;;;;;25.33;22.67;;;;;;;;5068122;28;28764;-81
2023/12/18 04:18:06;;;;;;;;;27.00;23.33;;;;;;;;5056575;28;27939;-80
2023/12/18 04:20:32;;;;;;;;;24.67;22.00;;;;;;;;5077200;28;29636;-80
2023/12/18 04:22:57;;;;;;;;;21.67;21.33;;;;;;;;5076530;28;29577;-82
2023/12/18 04:25:22;;;;;;;;;25.33;24.33;;;;;;;;5054344;28;28742;-81
2023/12/18 04:27:48;;;;;;;;;29.00;25.67;;;;;;;;5071335;28;28500;-81
2023/12/18 04:30:13;;;;;;;;;28.33;24.33;;;;;;;;5059354;28;29100;-81
2023/12/18 04:32:38;;;;;;;;;33.33;25.67;;;;;;;;5081228;28;28579;-80
2023/12/18 04:35:04;;;;;;;;;25.00;23.67;;;;;;;;5073992;28;28426;-81
2023/12/18 04:37:29;;;;;;;;;27.00;25.33;;;;;;;;5069536;28;27960;-82
2023/12/18 04:39:55;;;;;;;;;30.33;25.67;;;;;;;;5076970;28;28602;-82
2023/12/18 04:42:21;;;;;;;;;31.33;26.00;;;;;;;;5077756;28;28572;-80
2023/12/18 04:44:46;;;;;;;;;32.00;25.67;;;;;;;;5055944;28;28533;-81
2023/12/18 04:47:11;;;;;;;;;32.00;27.00;;;;;;;;5040226;28;28914;-81
2023/12/18 04:49:37;;;;;;;;;33.00;30.33;;;;;;;;5058633;28;29437;-80
2023/12/18 04:52:02;;;;;;;;;27.33;24.33;;;;;;;;5049010;28;30156;-82
2023/12/18 04:54:28;;;;;;;;;29.33;26.33;;;;;;;;5070155;28;28048;-80
2023/12/18 04:56:53;;;;;;;;;30.33;27.33;;;;;;;;5042688;28;28479;-81
2023/12/18 04:59:18;;;;;;;;;23.67;20.67;;;;;;;;5081945;28;28232;-81
2023/12/18 05:01:43;;;;;;;;;25.67;21.33;;;;;;;;5075508;28;28532;-81
2023/12/18 05:04:15;;;;;;;;;28.67;23.00;;;;;;;;5076311;28;28519;-82
2023/12/18 05:06:41;;;;;;;;;29.33;23.00;;;;;;;;5077535;28;28517;-82
2023/12/18 05:09:06;;;;;;;;;30.33;25.00;;;;;;;;5075623;28;28422;-80
2023/12/18 05:11:31;;;;;;;;;26.00;25.67;;;;;;;;5076021;28;28146;-80
2023/12/18 05:13:57;;;;;;;;;27.33;24.67;;;;;;;;5054925;28;28509;-79
2023/12/18 05:16:22;;;;;;;;;29.00;22.67;;;;;;;;5074624;28;28735;-80
2023/12/18 05:18:47;;;;;;;;;27.00;25.33;;;;;;;;5074312;28;28808;-83
2023/12/18 05:21:13;;;;;;;;;22.67;22.67;;;;;;;;5058100;28;28310;-80
2023/12/18 05:23:38;;;;;;;;;25.00;22.33;;;;;;;;5073877;28;28554;-81
2023/12/18 05:26:04;;;;;;;;;33.67;29.00;;;;;;;;5054975;28;28457;-80
2023/12/18 05:28:29;;;;;;;;;34.75;32.50;;;;;;;;5059448;28;30671;-82
2023/12/18 05:30:54;;;;;;;;;59.75;44.50;;;;;;;;5063018;28;29988;-82
2023/12/18 05:33:20;;;;;;;;;51.00;40.00;;;;;;;;5065225;28;28375;-82
2023/12/18 05:35:45;;;;;;;;;67.25;49.00;;;;;;;;5054616;28;28430;-75
2023/12/18 05:38:10;;;;;;;;;66.50;47.50;;;;;;;;5065410;28;28328;-76
2023/12/18 05:40:35;;;;;;;;;40.25;33.75;;;;;;;;5065393;28;28615;-76
2023/12/18 05:43:01;;;;;;;;;29.33;24.00;;;;;;;;5067061;28;28762;-76
2023/12/18 05:45:26;;;;;;;;;26.33;19.33;;;;;;;;5069573;28;28513;-76
2023/12/18 05:47:51;;;;;;;;;36.75;31.50;;;;;;;;5049344;28;29132;-75
2023/12/18 05:50:17;;;;;;;;;47.75;36.75;;;;;;;;5068870;28;28925;-74
2023/12/18 05:52:42;;;;;;;;;35.00;26.25;;;;;;;;5062532;28;28817;-75
2023/12/18 05:55:09;;;;;;;;;36.75;32.50;;;;;;;;5072300;28;29380;-75
2023/12/18 05:57:35;;;;;;;;;40.50;33.00;;;;;;;;5072634;28;28544;-74
2023/12/18 06:00:00;;;;;;;;;29.00;24.33;;;;;;;;5066701;28;28752;-74
2023/12/18 06:02:25;;;;;;;;;32.67;27.00;;;;;;;;5061343;28;28509;-76
2023/12/18 06:04:50;;;;;;;;;28.00;26.67;;;;;;;;5048769;28;28125;-74
2023/12/18 06:07:16;;;;;;;;;30.33;26.00;;;;;;;;5066384;28;28734;-78
2023/12/18 06:09:41;;;;;;;;;35.25;29.00;;;;;;;;5049580;28;30035;-75
2023/12/18 06:12:07;;;;;;;;;32.00;27.00;;;;;;;;5052639;28;28856;-76
2023/12/18 06:14:32;;;;;;;;;31.00;22.00;;;;;;;;5072344;28;28547;-78
2023/12/18 06:16:57;;;;;;;;;22.33;22.00;;;;;;;;5055368;28;28442;-76
2023/12/18 06:19:22;;;;;;;;;25.00;24.00;;;;;;;;5064819;28;28945;-77
2023/12/18 06:21:48;;;;;;;;;32.75;27.25;;;;;;;;5061315;28;28703;-75
2023/12/18 06:24:13;;;;;;;;;29.33;23.67;;;;;;;;5066703;28;28587;-75
2023/12/18 06:26:38;;;;;;;;;26.50;25.75;;;;;;;;5050178;28;30414;-76
2023/12/18 06:29:03;;;;;;;;;27.33;25.67;;;;;;;;5064706;28;29224;-75
2023/12/18 06:31:29;;;;;;;;;27.33;24.00;;;;;;;;5073381;28;28430;-75
2023/12/18 06:33:54;;;;;;;;;30.00;26.00;;;;;;;;5061699;28;28533;-75
2023/12/18 06:36:19;;;;;;;;;30.00;22.00;;;;;;;;5043285;28;29249;-74
2023/12/18 06:38:45;;;;;;;;;28.00;26.00;;;;;;;;5066665;28;28940;-75
2023/12/18 06:41:10;;;;;;;;;28.00;27.00;;;;;;;;5071881;28;28912;-75
2023/12/18 06:43:35;;;;;;;;;34.25;25.75;;;;;;;;5071281;28;28971;-75
2023/12/18 06:46:01;;;;;;;;;27.67;23.33;;;;;;;;5055425;28;29344;-75
2023/12/18 06:48:26;;;;;;;;;28.67;24.67;;;;;;;;5059004;28;29380;-76
2023/12/18 06:50:51;;;;;;;;;33.00;25.25;;;;;;;;5053156;28;28549;-75
2023/12/18 06:53:17;;;;;;;;;27.75;27.00;;;;;;;;5045781;28;28553;-74
2023/12/18 06:55:42;;;;;;;;;29.00;23.67;;;;;;;;5069885;28;28623;-76
2023/12/18 06:58:07;;;;;;;;;27.67;23.67;;;;;;;;5052124;28;28444;-74
2023/12/18 07:00:32;;;;;;;;;29.75;25.25;;;;;;;;5058853;28;28443;-73
2023/12/18 07:02:58;;;;;;;;;25.00;22.50;;;;;;;;5061870;28;28453;-76
2023/12/18 07:05:23;;;;;;;;;31.33;27.67;;;;;;;;5077277;28;28633;-83
2023/12/18 07:07:53;;;;;;;;;21.00;17.00;;;;;;;;5080215;28;28695;-82
2023/12/18 07:10:21;;;;;;;;;32.25;26.00;;;;;;;;5053238;28;28614;-84
2023/12/18 07:12:47;;;;;;;;;32.33;25.67;;;;;;;;5081269;28;28465;-82
2023/12/18 07:15:13;;;;;;;;;28.75;27.50;;;;;;;;5060196;28;29117;-82
2023/12/18 07:17:38;;;;;;;;;31.00;26.67;;;;;;;;5055040;28;30720;-80
2023/12/18 07:20:05;;;;;;;;;30.67;27.67;;;;;;;;5079301;28;28501;-81
2023/12/18 07:22:34;;;;;;;;;30.25;24.75;;;;;;;;5075240;28;28901;-78
2023/12/18 07:24:59;;;;;;;;;28.75;24.50;;;;;;;;5062808;28;28593;-75
2023/12/18 07:27:24;;;;;;;;;32.33;25.33;;;;;;;;5069720;28;28778;-80
2023/12/18 07:29:50;;;;;;;;;29.50;25.00;;;;;;;;5054974;28;28546;-82
2023/12/18 07:32:15;;;;;;;;;28.00;27.00;;;;;;;;5063830;28;29653;-81
2023/12/18 07:34:41;;;;;;;;;32.25;30.75;;;;;;;;5067395;28;28930;-74
2023/12/18 07:37:06;;;;;;;;;30.75;28.50;;;;;;;;5049687;28;28523;-74
2023/12/18 07:39:31;;;;;;;;;32.00;24.33;;;;;;;;5072419;28;28505;-76
2023/12/18 07:41:56;;;;;;;;;26.33;22.67;;;;;;;;5055026;28;29445;-75
2023/12/18 07:44:22;;;;;;;;;26.67;22.67;;;;;;;;5068209;28;28840;-76
2023/12/18 07:46:48;;;;;;;;;23.67;22.00;;;;;;;;5075014;28;29122;-79
2023/12/18 07:49:13;;;;;;;;;26.67;23.67;;;;;;;;5071688;28;27961;-74
2023/12/18 07:51:39;;;;;;;;;28.00;22.67;;;;;;;;5072867;28;28712;-73
2023/12/18 07:54:04;;;;;;;;;26.50;24.25;;;;;;;;5067858;28;28817;-75
2023/12/18 07:56:30;;;;;;;;;26.00;23.25;;;;;;;;5074345;28;28540;-74
2023/12/18 07:58:55;;;;;;;;;24.00;21.25;;;;;;;;5049271;28;29326;-74
2023/12/18 08:01:21;;;;;;;;;25.50;22.75;;;;;;;;5067379;28;28708;-75
2023/12/18 08:03:46;;;;;;;;;25.00;22.67;;;;;;;;5073002;28;28388;-76
2023/12/18 08:06:11;;;;;;;;;26.33;22.33;;;;;;;;5058519;28;30547;-74
2023/12/18 08:08:36;;;;;;;;;22.00;21.00;;;;;;;;5057225;28;28939;-76
2023/12/18 08:11:02;;;;;;;;;23.33;19.67;;;;;;;;5072524;28;28418;-77
2023/12/18 08:13:27;;;;;;;;;20.67;17.67;;;;;;;;5075837;28;29297;-76
2023/12/18 08:15:52;;;;;;;;;21.33;16.67;;;;;;;;5068176;28;28575;-76
2023/12/18 08:18:18;;;;;;;;;21.33;16.00;;;;;;;;5073179;28;28384;-75
2023/12/18 08:20:44;;;;;;;;;21.67;18.67;;;;;;;;5077675;28;28422;-77
2023/12/18 08:23:09;;;;;;;;;16.00;15.00;;;;;;;;5037283;28;28616;-75
2023/12/18 08:25:34;;;;;;;;;18.00;17.00;;;;;;;;5070416;28;28486;-76
2023/12/18 08:27:59;;;;;;;;;20.33;20.00;;;;;;;;5068290;28;28558;-74
2023/12/18 08:30:25;;;;;;;;;31.00;22.50;;;;;;;;5051344;28;28470;-77
2023/12/18 08:32:50;;;;;;;;;22.00;17.33;;;;;;;;5041913;28;29455;-75
2023/12/18 08:35:15;;;;;;;;;22.00;20.67;;;;;;;;5046062;28;30797;-75
2023/12/18 08:37:40;;;;;;;;;19.33;18.00;;;;;;;;5069609;28;28518;-75
2023/12/18 08:40:06;;;;;;;;;21.67;19.67;;;;;;;;5063349;28;28879;-74
2023/12/18 08:42:31;;;;;;;;;27.50;23.50;;;;;;;;5055661;28;28505;-74
2023/12/18 08:44:56;;;;;;;;;25.25;18.75;;;;;;;;5049999;28;29683;-73
2023/12/18 08:47:22;;;;;;;;;19.25;16.75;;;;;;;;5067501;28;28492;-74
2023/12/18 08:49:47;;;;;;;;;15.00;14.33;;;;;;;;5069609;28;28544;-75
2023/12/18 08:52:12;;;;;;;;;24.67;19.67;;;;;;;;5050484;28;29593;-72
2023/12/18 08:54:38;;;;;;;;;26.25;20.00;;;;;;;;5050956;28;29724;-73
2023/12/18 08:57:03;;;;;;;;;24.67;22.33;;;;;;;;5068796;28;29006;-73
2023/12/18 08:59:28;;;;;;;;;27.00;20.33;;;;;;;;5069528;28;28492;-74
2023/12/18 09:01:53;;;;;;;;;17.33;16.00;;;;;;;;5046296;28;30892;-75
2023/12/18 09:04:19;;;;;;;;;25.00;19.25;;;;;;;;5060847;28;28833;-72
2023/12/18 09:06:44;;;;;;;;;23.50;18.00;;;;;;;;5069850;28;28500;-73
2023/12/18 09:09:09;;;;;;;;;20.50;16.25;;;;;;;;5069398;28;28509;-73
2023/12/18 09:11:35;;;;;;;;;25.00;21.67;;;;;;;;5055548;28;28710;-72
2023/12/18 09:14:03;;;;;;;;;14.33;14.33;;;;;;;;5063395;28;28522;-73
2023/12/18 09:16:28;;;;;;;;;19.00;16.33;;;;;;;;5057976;28;28530;-71
2023/12/18 09:18:53;;;;;;;;;23.33;19.00;;;;;;;;5068163;28;28583;-72
2023/12/18 09:21:18;;;;;;;;;17.00;17.00;;;;;;;;5049977;28;29052;-72
2023/12/18 09:23:46;;;;;;;;;17.33;14.67;;;;;;;;5064958;28;28655;-73
2023/12/18 09:26:12;;;;;;;;;19.00;17.67;;;;;;;;5046475;28;28668;-71
2023/12/18 09:28:38;;;;;;;;;21.00;16.00;;;;;;;;5068229;28;28521;-72
2023/12/18 09:31:05;;;;;;;;;21.67;18.00;;;;;;;;5061860;28;28702;-71
2023/12/18 09:33:30;;;;;;;;;22.00;19.00;;;;;;;;5050047;28;30087;-70
2023/12/18 09:35:56;;;;;;;;;21.33;19.67;;;;;;;;5064538;28;28427;-72
2023/12/18 09:38:22;;;;;;;;;18.33;15.67;;;;;;;;5047991;28;28431;-73
2023/12/18 09:40:48;;;;;;;;;19.33;16.67;;;;;;;;5065245;28;28673;-72
2023/12/18 09:43:17;;;;;;;;;21.33;18.00;;;;;;;;5067960;28;28755;-72
2023/12/18 09:45:43;;;;;;;;;21.33;20.00;;;;;;;;5065473;28;28641;-72
2023/12/18 09:48:09;;;;;;;;;27.33;20.67;;;;;;;;5068153;28;28387;-72
2023/12/18 09:50:34;;;;;;;;;23.33;22.00;;;;;;;;5050594;28;29783;-74
2023/12/18 09:53:07;;;;;;;;;23.50;22.75;;;;;;;;5069669;28;28409;-77
2023/12/18 09:55:32;;;;;;;;;22.75;21.00;;;;;;;;5068751;28;28786;-77
2023/12/18 09:57:58;;;;;;;;;17.33;17.00;;;;;;;;5041792;28;28565;-76
2023/12/18 10:00:24;;;;;;;;;20.50;19.50;;;;;;;;5048098;28;29420;-75
2023/12/18 10:02:56;;;;;;;;;22.00;19.00;;;;;;;;5069772;28;29388;-77
2023/12/18 10:05:22;;;;;;;;;27.00;22.67;;;;;;;;5052503;28;28482;-75
2023/12/18 10:07:47;;;;;;;;;19.25;17.25;;;;;;;;5069698;28;28859;-82
2023/12/18 10:10:12;;;;;;;;;17.25;13.25;;;;;;;;5039232;28;28822;-71
2023/12/18 10:12:41;;;;;;;;;21.00;17.33;;;;;;;;5065860;28;29468;-77
2023/12/18 10:15:07;;;;;;;;;18.33;15.00;;;;;;;;5049609;28;29273;-75
2023/12/18 10:17:33;;;;;;;;;21.33;20.00;;;;;;;;5046085;28;28478;-75
2023/12/18 10:20:01;;;;;;;;;23.67;20.33;;;;;;;;5064578;28;28550;-74
2023/12/18 10:22:26;;;;;;;;;17.67;17.33;;;;;;;;5051454;28;30253;-75
2023/12/18 10:24:52;;;;;;;;;24.33;20.33;;;;;;;;5050075;28;29415;-76
2023/12/18 10:27:17;;;;;;;;;21.33;19.00;;;;;;;;5050321;28;28551;-75
2023/12/18 10:29:43;;;;;;;;;25.00;21.00;;;;;;;;5050488;28;29375;-74
2023/12/18 10:32:08;;;;;;;;;25.00;22.25;;;;;;;;5059002;28;28583;-75
2023/12/18 10:34:36;;;;;;;;;28.50;21.25;;;;;;;;5061509;28;28386;-76
2023/12/18 10:37:02;;;;;;;;;19.67;17.67;;;;;;;;5045837;28;28436;-76
2023/12/18 10:39:29;;;;;;;;;25.00;21.33;;;;;;;;5051155;28;30895;-78
2023/12/18 10:41:59;;;;;;;;;21.00;18.67;;;;;;;;5052990;28;29751;-78
2023/12/18 10:44:25;;;;;;;;;26.00;21.50;;;;;;;;5053615;28;27896;-78
2023/12/18 10:46:50;;;;;;;;;21.33;18.00;;;;;;;;5085137;28;28568;-73
2023/12/18 10:49:16;;;;;;;;;21.67;17.33;;;;;;;;5074364;28;28670;-73
2023/12/18 10:51:42;;;;;;;;;17.00;15.33;;;;;;;;5063451;28;29564;-79
2023/12/18 10:54:09;;;;;;;;;19.00;18.33;;;;;;;;5053487;28;27947;-80
2023/12/18 10:56:35;;;;;;;;;23.75;20.50;;;;;;;;5071648;28;28267;-79
2023/12/18 10:59:03;;;;;;;;;24.50;21.75;;;;;;;;5087191;28;29247;-80
2023/12/18 11:01:28;;;;;;;;;20.50;19.75;;;;;;;;5076060;28;28259;-73
2023/12/18 11:03:54;;;;;;;;;19.67;18.33;;;;;;;;5077386;28;28603;-73
2023/12/18 11:06:20;;;;;;;;;23.00;19.00;;;;;;;;5074636;28;28386;-78
2023/12/18 11:08:46;;;;;;;;;24.00;20.00;;;;;;;;5062625;28;29297;-74
2023/12/18 11:11:12;;;;;;;;;19.33;18.67;;;;;;;;5071952;28;28099;-74
2023/12/18 11:13:40;;;;;;;;;21.67;19.00;;;;;;;;5078375;28;28513;-74
2023/12/18 11:16:25;;;;;;;;;26.00;21.67;;;;;;;;5066840;28;28236;-80
2023/12/18 11:18:59;;;;;;;;;23.67;20.67;;;;;;;;5071796;28;27969;-75
2023/12/18 11:21:24;;;;;;;;;20.00;20.00;;;;;;;;5074322;28;30198;-74
2023/12/18 11:23:50;;;;;;;;;26.75;17.25;;;;;;;;5077534;28;28549;-75
2023/12/18 11:26:15;;;;;;;;;27.25;23.75;;;;;;;;5077260;28;28646;-74
2023/12/18 11:28:41;;;;;;;;;23.25;21.25;;;;;;;;5030345;28;28748;-74
2023/12/18 11:31:08;;;;;;;;;18.67;17.00;;;;;;;;5058595;28;29586;-76
2023/12/18 11:33:33;;;;;;;;;25.00;21.33;;;;;;;;5081232;28;27961;-75
2023/12/18 11:35:59;;;;;;;;;27.75;23.50;;;;;;;;5056985;28;27896;-71
2023/12/18 11:38:25;;;;;;;;;16.75;16.00;;;;;;;;5072158;28;28864;-73
2023/12/18 11:40:52;;;;;;;;;23.00;20.67;;;;;;;;5071349;28;28287;-75
2023/12/18 11:43:36;;;;;;;;;23.00;22.00;;;;;;;;5055144;28;28615;-74
2023/12/18 11:46:02;;;;;;;;;22.67;19.00;;;;;;;;5055023;28;28478;-76
2023/12/18 11:48:27;;;;;;;;;22.00;12.33;;;;;;;;5044524;28;28494;-75
2023/12/18 11:50:53;;;;;;;;;24.50;23.00;;;;;;;;5058737;28;28450;-76
2023/12/18 11:53:24;;;;;;;;;28.00;25.33;;;;;;;;5067391;28;28572;-74
2023/12/18 11:55:50;;;;;;;;;25.00;20.67;;;;;;;;5062466;28;28548;-75
2023/12/18 11:58:17;;;;;;;;;23.75;22.00;;;;;;;;5063717;28;29412;-73
2023/12/18 12:00:43;;;;;;;;;25.25;22.00;;;;;;;;5048243;28;29628;-75
2023/12/18 12:03:10;;;;;;;;;29.25;25.50;;;;;;;;5067339;28;29020;-75
2023/12/18 12:05:36;;;;;;;;;30.25;25.25;;;;;;;;5067449;28;28984;-75
2023/12/18 12:08:02;;;;;;;;;17.33;15.67;;;;;;;;5047458;28;30341;-75
2023/12/18 12:10:27;;;;;;;;;22.00;19.33;;;;;;;;5045858;28;29005;-75
2023/12/18 12:12:56;;;;;;;;;17.33;15.67;;;;;;;;5055754;28;28539;-75
2023/12/18 12:15:23;;;;;;;;;21.67;15.33;;;;;;;;5060503;28;27985;-75
2023/12/18 12:17:49;;;;;;;;;15.67;14.33;;;;;;;;5070395;28;28433;-79
2023/12/18 12:20:52;;;;;;;;;;;;;;;;;;;;;
2023/12/18 12:23:18;;;;;;;;;23.00;17.67;;;;;;;;5063546;28;56185;-81
2023/12/18 12:25:44;;;;;;;;;16.00;16.00;;;;;;;;5052950;28;28910;-78
2023/12/18 12:28:10;;;;;;;;;20.33;16.00;;;;;;;;5047529;28;28695;-80
2023/12/18 12:30:35;;;;;;;;;19.67;14.00;;;;;;;;5037460;28;29796;-80
2023/12/18 12:33:03;;;;;;;;;17.33;16.00;;;;;;;;5065300;28;28544;-78
2023/12/18 12:35:31;;;;;;;;;15.33;14.67;;;;;;;;5062869;28;28715;-80
2023/12/18 12:37:57;;;;;;;;;15.33;13.00;;;;;;;;5065032;28;28864;-80
2023/12/18 12:40:23;;;;;;;;;14.67;13.67;;;;;;;;5054779;28;29664;-80
2023/12/18 12:42:48;;;;;;;;;16.33;15.00;;;;;;;;5070947;28;28490;-81
2023/12/18 12:45:14;;;;;;;;;15.00;13.00;;;;;;;;5072710;28;29053;-81
2023/12/18 12:47:39;;;;;;;;;15.00;12.00;;;;;;;;5065603;28;28471;-79
2023/12/18 12:50:06;;;;;;;;;12.67;11.67;;;;;;;;5039102;28;29792;-80
2023/12/18 12:52:34;;;;;;;;;20.00;15.33;;;;;;;;5048179;28;28541;-81
2023/12/18 12:54:59;;;;;;;;;13.00;11.67;;;;;;;;5072460;28;28712;-81
2023/12/18 12:57:25;;;;;;;;;15.00;15.00;;;;;;;;5069491;28;28635;-81
2023/12/18 12:59:54;;;;;;;;;12.67;11.00;;;;;;;;5065610;28;29084;-81
2023/12/18 13:02:23;;;;;;;;;15.33;13.00;;;;;;;;5053260;28;28518;-79
2023/12/18 13:04:49;;;;;;;;;13.67;12.67;;;;;;;;5072931;28;28601;-80
2023/12/18 13:07:15;;;;;;;;;13.00;13.00;;;;;;;;5071111;28;28746;-81
2023/12/18 13:09:40;;;;;;;;;20.33;13.67;;;;;;;;5049374;28;28522;-80
2023/12/18 13:12:06;;;;;;;;;15.67;13.33;;;;;;;;5042012;28;29759;-81
2023/12/18 13:14:34;;;;;;;;;7.00;7.00;;;;;;;;5067066;28;28880;-83
2023/12/18 13:17:00;;;;;;;;;17.67;13.67;;;;;;;;5061763;28;28655;-82
2023/12/18 13:19:28;;;;;;;;;13.67;11.33;;;;;;;;5068692;28;28691;-80
2023/12/18 13:21:53;;;;;;;;;14.00;13.33;;;;;;;;5063825;28;28454;-80
2023/12/18 13:24:18;;;;;;;;;12.67;12.67;;;;;;;;5069307;28;28903;-81
2023/12/18 13:26:44;;;;;;;;;14.67;12.00;;;;;;;;5043564;28;29313;-81
2023/12/18 13:29:09;;;;;;;;;12.33;11.33;;;;;;;;5065605;28;29608;-82
2023/12/18 13:31:35;;;;;;;;;16.67;15.33;;;;;;;;5076822;28;28802;-81
2023/12/18 13:34:01;;;;;;;;;12.00;11.33;;;;;;;;5072391;28;27840;-80
2023/12/18 13:36:26;;;;;;;;;11.67;9.00;;;;;;;;5046085;28;29118;-81
2023/12/18 13:38:51;;;;;;;;;8.33;8.33;;;;;;;;5072868;28;28666;-80
2023/12/18 13:41:17;;;;;;;;;13.00;13.00;;;;;;;;5068413;28;28707;-81
2023/12/18 13:43:42;;;;;;;;;15.00;12.00;;;;;;;;5052564;28;28837;-81
2023/12/18 13:46:08;;;;;;;;;17.67;12.00;;;;;;;;5046764;28;29415;-80
2023/12/18 13:48:33;;;;;;;;;13.33;10.33;;;;;;;;5061029;28;29646;-81
2023/12/18 13:51:00;;;;;;;;;12.00;12.00;;;;;;;;5056996;28;28458;-82
2023/12/18 13:53:25;;;;;;;;;12.33;8.67;;;;;;;;5058252;28;28574;-82
2023/12/18 13:55:51;;;;;;;;;12.67;12.00;;;;;;;;5050324;28;29255;-80
2023/12/18 13:58:16;;;;;;;;;14.00;12.33;;;;;;;;5039989;28;30463;-79
2023/12/18 14:00:42;;;;;;;;;11.33;9.33;;;;;;;;5033356;28;28483;-79
2023/12/18 14:03:08;;;;;;;;;16.33;11.33;;;;;;;;5053126;28;28882;-79
2023/12/18 14:05:33;;;;;;;;;12.67;11.00;;;;;;;;5047609;28;29786;-79
2023/12/18 14:07:58;;;;;;;;;14.33;11.33;;;;;;;;5073284;28;29334;-79
2023/12/18 14:10:24;;;;;;;;;8.00;8.00;;;;;;;;5061250;28;28415;-81